This is the latest recevied weather packets stored in our database for station/object IW1RID-3. If no packets are shown the sender has not sent any weather packets the latest 10 day(s).
| Time | Temp. | Humidity | Pressure | Rain* | Wind** | Luminosity | Snow |
|---|---|---|---|---|---|---|---|
| 1787758897 | 27.78° C | 72% | 1074.1 hPa | - | - | - | - |
| 1787757692 | 28.89° C | 68% | 1074 hPa | - | - | - | - |
| 1787756486 | 30.56° C | 63% | 1074.5 hPa | - | - | - | - |
| 1787755281 | 30° C | 66% | 1074.5 hPa | - | - | - | - |
| 1787754075 | 28.33° C | 70% | 1074.6 hPa | - | - | - | - |
| 1787752870 | 27.78° C | 71% | 1073.6 hPa | - | - | - | - |
| 1787751665 | 27.78° C | 68% | 1074.7 hPa | - | - | - | - |
| 1787750460 | 29.44° C | 63% | 1074.9 hPa | - | - | - | - |
| 1787749255 | 30° C | 62% | 1075 hPa | - | - | - | - |
| 1787748050 | 30° C | 63% | 1074.4 hPa | - | - | - | - |
| 1787746844 | 29.44° C | 62% | 1074.6 hPa | - | - | - | - |
| 1787745636 | 29.44° C | 62% | 1074.3 hPa | - | - | - | - |
| 1787744430 | 29.44° C | 62% | 1074.7 hPa | - | - | - | - |
| 1787743225 | 28.33° C | 63% | 1075 hPa | - | - | - | - |
| 1787742019 | 28.33° C | 67% | 1075.2 hPa | - | - | - | - |
| 1787740813 | 28.33° C | 65% | 1075.3 hPa | - | - | - | - |
| 1787739608 | 28.33° C | 67% | 1075.2 hPa | - | - | - | - |
| 1787738402 | 28.33° C | 69% | 1075.4 hPa | - | - | - | - |
| 1787737196 | 28.33° C | 70% | 1075 hPa | - | - | - | - |
| 1787735991 | 27.78° C | 72% | 1075 hPa | - | - | - | - |
| 1787734786 | 27.22° C | 72% | 1074.5 hPa | - | - | - | - |
| 1787733582 | 27.22° C | 73% | 1074.4 hPa | - | - | - | - |
| 1787732377 | 26.67° C | 75% | 1074.3 hPa | - | - | - | - |
| 1787731172 | 26.11° C | 79% | 1074.6 hPa | - | - | - | - |
| 1787729968 | 24.44° C | 75% | 1074.5 hPa | - | - | - | - |
* Rain since midnight (hover to see other rain measurements)
** Current wind speed in m/s (hover to see current wind gust speed)